createdAt,value
2019-05-01T00:00:16.384Z,46.33
2019-05-01T00:02:43.983Z,40.17
2019-05-01T00:05:12.780Z,46.17
2019-05-01T00:07:41.321Z,48.30
2019-05-01T00:10:09.945Z,47.07
2019-05-01T00:12:38.567Z,49.03
2019-05-01T00:15:07.218Z,44.80
2019-05-01T00:17:35.653Z,45.77
2019-05-01T00:20:05.030Z,46.43
2019-05-01T00:22:33.472Z,48.23
2019-05-01T00:25:02.312Z,49.97
2019-05-01T00:27:32.284Z,49.07
2019-05-01T00:30:00.877Z,51.40
2019-05-01T00:32:29.695Z,49.07
2019-05-01T00:34:58.664Z,52.07
2019-05-01T00:37:27.099Z,49.07
2019-05-01T00:39:55.807Z,47.57
2019-05-01T00:42:24.243Z,48.60
2019-05-01T00:44:52.729Z,47.57
2019-05-01T00:47:21.087Z,53.53
2019-05-01T00:49:49.464Z,52.87
2019-05-01T00:52:17.803Z,48.07
2019-05-01T00:54:46.269Z,48.30
2019-05-01T00:57:14.680Z,49.03
2019-05-01T00:59:43.224Z,49.97
2019-05-01T01:02:11.647Z,46.03
2019-05-01T01:04:40.068Z,52.07
2019-05-01T01:07:08.718Z,55.60
2019-05-01T01:09:37.319Z,54.53
2019-05-01T01:12:05.829Z,51.97
2019-05-01T01:14:34.243Z,50.73
2019-05-01T01:17:02.807Z,52.00
2019-05-01T01:19:31.281Z,57.50
2019-05-01T01:21:59.832Z,51.30
2019-05-01T01:24:28.330Z,48.00
2019-05-01T01:26:57.992Z,52.87
2019-05-01T01:29:26.559Z,51.47
2019-05-01T01:31:54.984Z,52.30
2019-05-01T01:34:23.426Z,50.93
2019-05-01T01:36:51.793Z,50.97
2019-05-01T01:39:20.211Z,50.33
2019-05-01T01:41:48.774Z,51.03
2019-05-01T01:44:17.169Z,54.83
2019-05-01T01:46:45.723Z,50.60
2019-05-01T01:49:14.317Z,53.47
2019-05-01T01:51:42.749Z,55.23
2019-05-01T01:54:11.131Z,51.87
2019-05-01T01:56:39.602Z,54.43
2019-05-01T01:59:08.051Z,53.07
2019-05-01T02:01:36.426Z,53.00
2019-05-01T02:04:04.937Z,57.97
2019-05-01T02:06:33.371Z,55.33
2019-05-01T02:09:01.702Z,55.33
2019-05-01T02:11:30.219Z,52.93
2019-05-01T02:13:58.659Z,64.90
2019-05-01T02:16:27.135Z,57.10
2019-05-01T02:18:55.512Z,56.77
2019-05-01T02:21:24.687Z,55.43
2019-05-01T02:23:53.066Z,62.67
2019-05-01T02:26:21.385Z,59.23
2019-05-01T02:28:49.772Z,59.93
2019-05-01T02:31:28.364Z,59.27
2019-05-01T02:33:48.646Z,56.53
2019-05-01T02:36:17.730Z,64.90
2019-05-01T02:38:46.899Z,58.33
2019-05-01T02:41:15.803Z,65.53
2019-05-01T02:43:45.621Z,59.40
2019-05-01T02:46:15.476Z,70.07
2019-05-01T02:48:45.305Z,66.50
2019-05-01T02:51:14.009Z,61.43
2019-05-01T02:53:43.954Z,62.90
2019-05-01T02:56:12.985Z,66.37
2019-05-01T02:58:42.980Z,66.43
2019-05-01T03:01:14.259Z,63.50
2019-05-01T03:03:41.801Z,63.17
2019-05-01T03:06:10.510Z,67.43
2019-05-01T03:08:39.229Z,76.23
2019-05-01T03:11:07.593Z,75.27
2019-05-01T03:13:37.082Z,71.60
2019-05-01T03:16:06.950Z,76.80
2019-05-01T03:18:35.351Z,73.03
2019-05-01T03:21:03.830Z,81.90
2019-05-01T03:23:32.236Z,81.60
2019-05-01T03:26:00.689Z,85.00
2019-05-01T03:28:29.156Z,81.53
2019-05-01T03:30:57.580Z,85.47
2019-05-01T03:33:25.980Z,88.57
2019-05-01T03:35:54.432Z,81.03
2019-05-01T03:38:23.142Z,88.13
2019-05-01T03:40:51.909Z,87.27
2019-05-01T03:43:20.669Z,93.07
2019-05-01T03:45:49.690Z,94.57
2019-05-01T03:48:18.141Z,79.57
2019-05-01T03:50:47.587Z,92.27
2019-05-01T03:53:16.661Z,84.40
2019-05-01T03:55:45.303Z,100.93
2019-05-01T03:58:14.084Z,94.83
2019-05-01T04:00:42.853Z,115.83
2019-05-01T04:03:11.304Z,110.17
2019-05-01T04:05:39.949Z,111.97
2019-05-01T04:08:08.576Z,101.77
2019-05-01T04:10:37.299Z,109.20
2019-05-01T04:13:05.768Z,99.00
2019-05-01T04:15:34.553Z,143.83
2019-05-01T04:18:03.237Z,158.03
2019-05-01T04:20:31.763Z,142.93
2019-05-01T04:23:00.119Z,136.10
2019-05-01T04:25:28.516Z,282.50
2019-05-01T04:27:58.842Z,245.70
2019-05-01T04:30:26.991Z,141.00
2019-05-01T04:32:55.365Z,166.77
2019-05-01T04:35:23.853Z,201.33
2019-05-01T04:37:52.383Z,271.70
2019-05-01T04:40:20.782Z,206.20
2019-05-01T04:42:49.153Z,319.17
2019-05-01T04:45:18.198Z,248.33
2019-05-01T04:47:46.603Z,160.63
2019-05-01T04:50:15.146Z,304.03
2019-05-01T04:52:43.648Z,199.03
2019-05-01T04:55:11.943Z,128.03
2019-05-01T04:57:40.330Z,166.13
2019-05-01T05:00:08.695Z,163.07
2019-05-01T05:02:37.197Z,249.30
2019-05-01T05:05:06.057Z,258.93
2019-05-01T05:07:34.530Z,193.23
2019-05-01T05:10:03.891Z,247.63
2019-05-01T05:12:32.286Z,135.70
2019-05-01T05:15:00.660Z,428.23
2019-05-01T05:17:29.041Z,169.37
2019-05-01T05:19:57.409Z,182.53
2019-05-01T05:22:25.793Z,175.07
2019-05-01T05:24:54.266Z,246.83
2019-05-01T05:27:23.568Z,345.37
2019-05-01T05:29:53.422Z,269.90
2019-05-01T05:32:22.272Z,206.23
2019-05-01T05:34:52.216Z,266.13
2019-05-01T05:37:21.965Z,299.03
2019-05-01T05:39:50.944Z,358.30
2019-05-01T05:42:19.725Z,286.43
2019-05-01T05:44:48.187Z,247.37
2019-05-01T05:47:16.682Z,193.43
2019-05-01T05:49:45.042Z,142.57
2019-05-01T05:52:14.730Z,293.90
2019-05-01T05:54:43.199Z,276.10
2019-05-01T05:57:12.570Z,170.93
2019-05-01T05:59:42.420Z,243.03
2019-05-01T06:02:11.417Z,293.97
2019-05-01T06:04:41.352Z,345.87
2019-05-01T06:07:11.233Z,360.30
2019-05-01T06:09:44.658Z,283.80
2019-05-01T06:12:11.774Z,294.70
2019-05-01T06:14:40.474Z,355.70
2019-05-01T06:17:09.023Z,199.37
2019-05-01T06:19:37.480Z,195.17
2019-05-01T06:22:10.118Z,185.53
2019-05-01T06:24:40.579Z,170.83
2019-05-01T06:27:08.978Z,213.97
2019-05-01T06:29:37.293Z,170.57
2019-05-01T06:32:05.693Z,170.30
2019-05-01T06:34:34.094Z,129.77
2019-05-01T06:37:02.454Z,159.57
2019-05-01T06:39:31.156Z,153.50
2019-05-01T06:41:59.591Z,142.73
2019-05-01T06:44:28.102Z,144.57
2019-05-01T06:46:58.245Z,214.33
2019-05-01T06:49:29.417Z,129.63
2019-05-01T06:51:57.552Z,183.10
2019-05-01T06:54:26.696Z,123.60
2019-05-01T06:56:56.716Z,119.13
2019-05-01T06:59:30.820Z,117.80
2019-05-01T07:01:58.355Z,100.43
2019-05-01T07:04:32.274Z,93.60
2019-05-01T07:07:01.919Z,123.23
2019-05-01T07:09:29.565Z,88.57
2019-05-01T07:11:58.353Z,84.90
2019-05-01T07:14:26.900Z,103.47
2019-05-01T07:16:55.281Z,69.43
2019-05-01T07:19:23.645Z,82.50
2019-05-01T07:21:52.144Z,63.67
2019-05-01T07:24:24.003Z,90.27
2019-05-01T07:26:50.578Z,80.03
2019-05-01T07:29:18.954Z,119.90
2019-05-01T07:31:47.569Z,72.33
2019-05-01T07:34:16.890Z,81.27
2019-05-01T07:36:45.785Z,79.10
2019-05-01T07:39:15.900Z,107.57
2019-05-01T07:41:44.361Z,71.57
2019-05-01T07:44:12.798Z,55.90
2019-05-01T07:46:41.195Z,74.10
2019-05-01T07:49:13.167Z,65.23
2019-05-01T07:51:42.376Z,75.17
2019-05-01T07:54:09.718Z,61.00
2019-05-01T07:56:38.104Z,80.03
2019-05-01T07:59:06.457Z,58.33
2019-05-01T08:01:34.876Z,83.90
2019-05-01T08:04:04.079Z,52.70
2019-05-01T08:06:32.406Z,56.10
2019-05-01T08:09:00.689Z,50.67
2019-05-01T08:11:29.086Z,59.67
2019-05-01T08:14:07.124Z,56.00
2019-05-01T08:16:27.484Z,50.07
2019-05-01T08:18:59.179Z,53.67
2019-05-01T08:21:27.464Z,52.63
2019-05-01T08:23:55.852Z,51.07
2019-05-01T08:26:24.206Z,56.03
2019-05-01T08:28:52.602Z,50.90
2019-05-01T08:31:23.010Z,50.17
2019-05-01T08:33:51.608Z,49.97
2019-05-01T08:36:20.129Z,50.20
2019-05-01T08:38:48.757Z,46.60
2019-05-01T08:41:17.324Z,49.97
2019-05-01T08:43:48.871Z,47.80
2019-05-01T08:46:16.785Z,50.17
2019-05-01T08:48:46.171Z,49.97
2019-05-01T08:51:14.621Z,52.30
2019-05-01T08:53:43.053Z,48.27
2019-05-01T08:56:11.434Z,45.50
2019-05-01T08:58:39.933Z,49.40
2019-05-01T09:01:10.797Z,44.03
2019-05-01T09:03:38.350Z,54.23
2019-05-01T09:06:06.707Z,47.13
2019-05-01T09:08:35.173Z,50.13
2019-05-01T09:11:03.648Z,50.73
2019-05-01T09:13:31.962Z,49.90
2019-05-01T09:16:06.220Z,49.20
2019-05-01T09:18:37.748Z,59.00
2019-05-01T09:21:06.143Z,50.40
2019-05-01T09:23:34.844Z,50.50
2019-05-01T09:26:06.306Z,52.20
2019-05-01T09:28:35.927Z,55.00
2019-05-01T09:31:05.732Z,49.67
2019-05-01T09:33:34.153Z,52.93
2019-05-01T09:36:05.696Z,51.47
2019-05-01T09:38:34.386Z,47.90
2019-05-01T09:41:02.851Z,50.87
2019-05-01T09:43:35.551Z,51.40
2019-05-01T09:46:01.448Z,47.77
2019-05-01T09:48:29.740Z,45.13
2019-05-01T09:51:00.787Z,46.27
2019-05-01T09:53:29.681Z,46.30
2019-05-01T09:55:58.176Z,47.53
2019-05-01T09:58:26.542Z,46.23
2019-05-01T10:00:54.931Z,50.00
2019-05-01T10:03:23.234Z,49.77
2019-05-01T10:05:51.689Z,50.33
2019-05-01T10:08:20.117Z,49.87
2019-05-01T10:10:48.438Z,47.23
2019-05-01T10:13:17.779Z,47.77
2019-05-01T10:15:46.801Z,48.37
2019-05-01T10:18:15.287Z,49.13
2019-05-01T10:20:43.734Z,48.53
2019-05-01T10:23:13.227Z,51.73
2019-05-01T10:25:42.883Z,47.23
2019-05-01T10:28:17.371Z,50.13
2019-05-01T10:30:43.784Z,46.73
2019-05-01T10:33:12.146Z,46.60
2019-05-01T10:35:43.080Z,47.93
2019-05-01T10:38:10.790Z,47.33
2019-05-01T10:40:40.642Z,45.57
2019-05-01T10:43:09.791Z,51.17
2019-05-01T10:45:38.258Z,46.20
2019-05-01T10:48:07.390Z,44.63
2019-05-01T10:50:35.907Z,45.60
2019-05-01T10:53:04.327Z,45.07
2019-05-01T10:55:32.884Z,47.47
2019-05-01T10:58:03.300Z,48.60
2019-05-01T11:00:31.987Z,45.80
2019-05-01T11:03:00.415Z,42.83
2019-05-01T11:05:28.771Z,44.90
2019-05-01T11:07:57.091Z,47.80
2019-05-01T11:10:25.467Z,47.07
2019-05-01T11:12:54.691Z,45.47
2019-05-01T11:15:23.001Z,49.13
2019-05-01T11:17:51.465Z,41.70
2019-05-01T11:20:19.821Z,43.87
2019-05-01T11:22:48.144Z,43.10
2019-05-01T11:25:16.521Z,47.43
2019-05-01T11:27:44.903Z,46.13
2019-05-01T11:30:13.269Z,47.57
2019-05-01T11:32:41.611Z,44.20
2019-05-01T11:35:10.037Z,44.50
2019-05-01T11:37:38.495Z,48.50
2019-05-01T11:40:07.069Z,43.87
2019-05-01T11:42:35.465Z,46.67
2019-05-01T11:45:05.310Z,44.40
2019-05-01T11:47:33.622Z,45.50
2019-05-01T11:50:01.905Z,46.20
2019-05-01T11:52:30.316Z,42.37
2019-05-01T11:54:58.690Z,51.55
2019-05-01T11:57:27.141Z,45.97
2019-05-01T11:59:55.515Z,45.60
2019-05-01T12:02:23.964Z,44.17
2019-05-01T12:04:52.351Z,46.67
2019-05-01T12:07:20.713Z,47.43
2019-05-01T12:09:49.092Z,47.57
2019-05-01T12:12:17.383Z,47.43
2019-05-01T12:14:45.792Z,49.50
2019-05-01T12:17:14.208Z,42.50
2019-05-01T12:19:42.541Z,47.03
2019-05-01T12:22:10.970Z,46.87
2019-05-01T12:24:39.342Z,46.90
2019-05-01T12:27:07.793Z,42.83
2019-05-01T12:29:36.109Z,48.13
2019-05-01T12:32:04.560Z,44.63
2019-05-01T12:34:32.954Z,46.57
2019-05-01T12:37:01.303Z,48.03
2019-05-01T12:39:29.616Z,46.43
2019-05-01T12:41:57.958Z,47.83
2019-05-01T12:44:26.359Z,48.97
2019-05-01T12:46:54.719Z,47.83
2019-05-01T12:49:23.030Z,47.70
2019-05-01T12:51:51.368Z,48.03
2019-05-01T12:54:19.733Z,48.30
2019-05-01T12:56:48.157Z,45.20
2019-05-01T12:59:16.531Z,44.93
2019-05-01T13:01:44.980Z,48.63
2019-05-01T13:04:13.435Z,47.60
2019-05-01T13:06:49.158Z,48.73
2019-05-01T13:09:11.727Z,52.00
2019-05-01T13:11:40.173Z,49.00
2019-05-01T13:14:08.521Z,51.53
2019-05-01T13:16:36.831Z,50.70
2019-05-01T13:19:05.205Z,48.63
2019-05-01T13:21:33.582Z,50.23
2019-05-01T13:24:02.404Z,49.93
2019-05-01T13:26:30.857Z,45.37
2019-05-01T13:28:59.207Z,48.67
2019-05-01T13:31:27.603Z,52.10
2019-05-01T13:33:55.970Z,47.87
2019-05-01T13:36:24.400Z,50.00
2019-05-01T13:38:53.244Z,48.17
2019-05-01T13:41:21.621Z,48.67
2019-05-01T13:43:50.008Z,53.73
2019-05-01T13:46:18.505Z,50.80
2019-05-01T13:48:46.825Z,48.73
2019-05-01T13:51:15.106Z,52.47
2019-05-01T13:53:43.419Z,56.40
2019-05-01T13:56:11.709Z,50.60
2019-05-01T13:58:40.084Z,52.23
2019-05-01T14:01:08.579Z,48.27
2019-05-01T14:03:36.956Z,51.00
2019-05-01T14:06:05.321Z,49.07
2019-05-01T14:08:33.659Z,47.03
2019-05-01T14:11:01.951Z,53.10
2019-05-01T14:13:30.304Z,50.87
2019-05-01T14:15:58.707Z,47.87
2019-05-01T14:18:27.094Z,49.80
2019-05-01T14:20:55.492Z,53.07
2019-05-01T14:23:24.168Z,51.93
2019-05-01T14:25:52.657Z,49.83
2019-05-01T14:28:21.122Z,55.37
2019-05-01T14:30:49.582Z,49.70
2019-05-01T14:33:17.965Z,49.33
2019-05-01T14:35:46.348Z,53.20
2019-05-01T14:38:14.829Z,50.83
2019-05-01T14:40:43.248Z,51.23
2019-05-01T14:43:11.716Z,58.00
2019-05-01T14:45:40.001Z,52.07
2019-05-01T14:48:08.478Z,53.83
2019-05-01T14:50:36.845Z,51.97
2019-05-01T14:53:05.327Z,52.47
2019-05-01T14:55:33.673Z,52.73
2019-05-01T14:58:02.066Z,53.03
2019-05-01T15:00:30.457Z,53.07
2019-05-01T15:02:58.839Z,54.43
2019-05-01T15:05:27.511Z,51.70
2019-05-01T15:07:55.891Z,51.80
2019-05-01T15:10:24.356Z,52.77
2019-05-01T15:12:52.683Z,54.73
2019-05-01T15:15:21.036Z,51.23
2019-05-01T15:17:49.335Z,52.10
2019-05-01T15:20:17.869Z,55.20
2019-05-01T15:22:46.365Z,51.93
2019-05-01T15:25:14.880Z,54.93
2019-05-01T15:27:43.270Z,56.23
2019-05-01T15:30:13.172Z,55.67
2019-05-01T15:32:41.607Z,56.00
2019-05-01T15:35:10.090Z,53.80
2019-05-01T15:37:38.520Z,57.63
2019-05-01T15:40:06.925Z,61.27
2019-05-01T15:42:35.311Z,55.63
2019-05-01T15:45:07.206Z,58.13
2019-05-01T15:47:35.590Z,54.27
2019-05-01T15:50:05.454Z,58.33
2019-05-01T15:52:33.791Z,59.20
2019-05-01T15:55:02.496Z,57.33
2019-05-01T15:57:30.816Z,60.90
2019-05-01T15:59:59.281Z,55.67
2019-05-01T16:02:27.718Z,55.87
2019-05-01T16:04:56.058Z,59.73
2019-05-01T16:07:24.379Z,57.07
2019-05-01T16:09:52.755Z,61.17
2019-05-01T16:12:21.176Z,58.53
2019-05-01T16:14:49.541Z,58.57
2019-05-01T16:17:17.865Z,57.77
2019-05-01T16:19:46.199Z,58.63
2019-05-01T16:22:14.664Z,55.43
2019-05-01T16:24:43.033Z,54.83
2019-05-01T16:27:11.475Z,55.50
2019-05-01T16:29:39.851Z,54.70
2019-05-01T16:32:08.243Z,57.60
2019-05-01T16:34:36.583Z,60.27
2019-05-01T16:37:04.900Z,61.13
2019-05-01T16:39:33.281Z,59.80
2019-05-01T16:42:01.704Z,57.10
2019-05-01T16:44:30.070Z,58.50
2019-05-01T16:46:58.479Z,57.10
2019-05-01T16:49:27.498Z,56.67
2019-05-01T16:51:55.908Z,60.07
2019-05-01T16:54:24.337Z,57.10
2019-05-01T16:56:52.830Z,62.70
2019-05-01T16:59:21.166Z,59.27
2019-05-01T17:01:49.634Z,56.70
2019-05-01T17:04:18.127Z,61.40
2019-05-01T17:06:46.532Z,56.77
2019-05-01T17:09:15.807Z,57.33
2019-05-01T17:11:44.160Z,58.67
2019-05-01T17:14:12.557Z,57.07
2019-05-01T17:16:41.076Z,57.43
2019-05-01T17:19:09.598Z,53.13
2019-05-01T17:21:38.057Z,61.77
2019-05-01T17:24:06.441Z,57.40
2019-05-01T17:26:34.806Z,58.97
2019-05-01T17:29:03.294Z,59.67
2019-05-01T17:31:32.254Z,58.60
2019-05-01T17:34:00.649Z,59.13
2019-05-01T17:36:29.069Z,62.13
2019-05-01T17:38:57.535Z,56.97
2019-05-01T17:41:27.253Z,61.33
2019-05-01T17:43:56.837Z,57.83
2019-05-01T17:46:25.363Z,58.13
2019-05-01T17:48:53.653Z,58.77
2019-05-01T17:51:21.984Z,59.87
2019-05-01T17:53:50.379Z,59.73
2019-05-01T17:56:27.491Z,57.70
2019-05-01T17:58:48.929Z,62.27
2019-05-01T18:01:17.647Z,58.00
2019-05-01T18:03:46.117Z,56.77
2019-05-01T18:06:14.614Z,58.47
2019-05-01T18:08:43.053Z,53.13
2019-05-01T18:11:14.292Z,58.37
2019-05-01T18:13:41.692Z,58.37
2019-05-01T18:16:10.105Z,63.87
2019-05-01T18:18:38.462Z,62.80
2019-05-01T18:21:06.780Z,57.43
2019-05-01T18:23:35.231Z,58.30
2019-05-01T18:26:04.843Z,59.73
2019-05-01T18:28:33.895Z,64.00
2019-05-01T18:31:02.347Z,56.70
2019-05-01T18:33:30.712Z,61.07
2019-05-01T18:36:00.227Z,58.30
2019-05-01T18:38:28.665Z,60.53
2019-05-01T18:40:56.994Z,59.00
2019-05-01T18:43:27.121Z,57.77
2019-05-01T18:45:55.634Z,59.97
2019-05-01T18:48:24.311Z,60.77
2019-05-01T18:50:54.611Z,61.10
2019-05-01T18:53:23.339Z,57.90
2019-05-01T18:55:51.973Z,61.67
2019-05-01T18:58:20.589Z,62.83
2019-05-01T19:00:49.064Z,58.60
2019-05-01T19:03:17.608Z,63.57
2019-05-01T19:05:46.930Z,60.43
2019-05-01T19:08:16.299Z,61.30
2019-05-01T19:10:44.948Z,63.70
2019-05-01T19:13:13.536Z,63.83
2019-05-01T19:15:42.033Z,60.57
2019-05-01T19:18:10.500Z,59.57
2019-05-01T19:20:38.938Z,68.77
2019-05-01T19:23:07.468Z,68.77
2019-05-01T19:25:35.917Z,63.80
2019-05-01T19:28:04.344Z,65.53
2019-05-01T19:30:34.010Z,67.27
2019-05-01T19:33:02.530Z,62.60
2019-05-01T19:35:34.146Z,65.87
2019-05-01T19:38:00.952Z,63.87
2019-05-01T19:40:30.556Z,69.03
2019-05-01T19:43:00.165Z,69.90
2019-05-01T19:45:28.841Z,65.10
2019-05-01T19:47:57.265Z,69.27
2019-05-01T19:50:25.734Z,67.10
2019-05-01T19:52:54.187Z,70.93
2019-05-01T19:55:22.536Z,71.80
2019-05-01T19:57:50.846Z,77.67
2019-05-01T20:00:20.832Z,76.53
2019-05-01T20:02:49.309Z,77.40
2019-05-01T20:05:21.801Z,73.57
2019-05-01T20:07:51.136Z,75.03
2019-05-01T20:10:17.904Z,72.27
2019-05-01T20:12:46.190Z,73.13
2019-05-01T20:15:15.012Z,74.83
2019-05-01T20:17:43.429Z,79.63
2019-05-01T20:20:12.200Z,80.37
2019-05-01T20:22:40.787Z,78.60
2019-05-01T20:25:09.269Z,80.57
2019-05-01T20:27:40.164Z,81.83
2019-05-01T20:30:08.156Z,81.20
2019-05-01T20:32:36.499Z,85.07
2019-05-01T20:35:05.354Z,82.60
2019-05-01T20:37:33.740Z,81.37
2019-05-01T20:40:11.044Z,84.30
2019-05-01T20:42:32.750Z,84.30
2019-05-01T20:45:05.622Z,85.27
2019-05-01T20:47:35.212Z,89.30
2019-05-01T20:50:01.301Z,88.73
2019-05-01T20:52:29.833Z,84.20
2019-05-01T20:54:58.375Z,90.67
2019-05-01T20:57:26.798Z,84.10
2019-05-01T20:59:55.236Z,87.17
2019-05-01T21:02:23.581Z,84.77
2019-05-01T21:04:52.018Z,87.23
2019-05-01T21:07:21.388Z,89.77
2019-05-01T21:09:56.983Z,88.47
2019-05-01T21:12:19.924Z,87.30
2019-05-01T21:14:49.717Z,91.33
2019-05-01T21:17:18.389Z,92.17
2019-05-01T21:19:46.821Z,91.83
2019-05-01T21:22:15.236Z,90.93
2019-05-01T21:24:44.331Z,90.17
2019-05-01T21:27:13.410Z,94.27
2019-05-01T21:29:41.725Z,92.37
2019-05-01T21:32:10.110Z,89.40
2019-05-01T21:34:38.431Z,87.73
2019-05-01T21:37:06.947Z,95.60
2019-05-01T21:39:35.315Z,89.63
2019-05-01T21:42:04.750Z,92.50
2019-05-01T21:44:33.801Z,84.47
2019-05-01T21:47:03.981Z,90.57
2019-05-01T21:49:33.305Z,90.67
2019-05-01T21:52:03.594Z,87.90
2019-05-01T21:54:31.908Z,80.57
2019-05-01T21:57:00.288Z,90.30
2019-05-01T21:59:28.652Z,85.30
2019-05-01T22:01:57.131Z,87.33
2019-05-01T22:04:27.785Z,87.37
2019-05-01T22:06:55.701Z,83.27
2019-05-01T22:09:24.091Z,90.03
2019-05-01T22:11:52.462Z,90.53
2019-05-01T22:14:20.857Z,84.93
2019-05-01T22:16:53.136Z,86.33
2019-05-01T22:19:19.441Z,85.33
2019-05-01T22:21:47.898Z,89.27
2019-05-01T22:24:16.331Z,95.10
2019-05-01T22:26:44.774Z,90.47
2019-05-01T22:29:13.212Z,92.07
2019-05-01T22:31:41.563Z,95.90
2019-05-01T22:34:10.255Z,89.63
2019-05-01T22:36:38.621Z,95.23
2019-05-01T22:39:07.338Z,85.50
2019-05-01T22:41:35.849Z,88.00
2019-05-01T22:44:04.298Z,90.40
2019-05-01T22:46:33.911Z,95.23
2019-05-01T22:49:02.698Z,93.20
2019-05-01T22:51:31.119Z,94.50
2019-05-01T22:53:59.472Z,93.43
2019-05-01T22:56:27.759Z,92.73
2019-05-01T22:58:56.151Z,94.97
2019-05-01T23:01:24.517Z,91.17
2019-05-01T23:03:52.942Z,91.77
2019-05-01T23:06:21.343Z,91.40
2019-05-01T23:08:49.729Z,92.93
2019-05-01T23:11:20.245Z,88.80
2019-05-01T23:13:48.157Z,91.70
2019-05-01T23:16:16.517Z,89.87
2019-05-01T23:18:47.038Z,90.90
2019-05-01T23:21:16.081Z,90.13
2019-05-01T23:23:44.516Z,87.97
2019-05-01T23:26:16.840Z,92.07
2019-05-01T23:28:42.892Z,98.60
2019-05-01T23:31:11.358Z,95.90
2019-05-01T23:33:39.642Z,93.47
2019-05-01T23:36:08.028Z,92.97
2019-05-01T23:38:36.323Z,93.97
2019-05-01T23:41:04.679Z,90.77
2019-05-01T23:43:32.979Z,89.87
2019-05-01T23:46:01.380Z,88.37
2019-05-01T23:48:29.680Z,91.50
2019-05-01T23:50:58.067Z,96.10
2019-05-01T23:53:26.360Z,96.53
2019-05-01T23:55:59.908Z,97.80
2019-05-01T23:58:24.737Z,97.03
